createdAt,value
2022-11-17T00:00:11.059Z,93.03
2022-11-17T00:01:12.064Z,92.98
2022-11-17T00:02:11.087Z,92.98
2022-11-17T00:03:13.056Z,93.07
2022-11-17T00:04:11.061Z,93.24
2022-11-17T00:05:11.062Z,93.07
2022-11-17T00:06:11.057Z,93.06
2022-11-17T00:07:11.136Z,92.99
2022-11-17T00:08:11.071Z,93.23
2022-11-17T00:09:13.059Z,93.21
2022-11-17T00:10:11.061Z,93.33
2022-11-17T00:11:11.075Z,93.40
2022-11-17T00:12:18.034Z,93.42
2022-11-17T00:13:17.784Z,93.43
2022-11-17T00:14:15.060Z,93.44
2022-11-17T00:15:11.070Z,93.34
2022-11-17T00:16:13.059Z,93.38
2022-11-17T00:17:11.061Z,93.33
2022-11-17T00:18:15.069Z,93.10
2022-11-17T00:19:15.067Z,93.30
2022-11-17T00:20:15.062Z,93.31
2022-11-17T00:21:15.064Z,93.30
2022-11-17T00:22:11.065Z,93.18
2022-11-17T00:23:11.069Z,93.29
2022-11-17T00:24:11.061Z,93.01
2022-11-17T00:25:11.065Z,93.21
2022-11-17T00:26:11.063Z,93.13
2022-11-17T00:27:11.062Z,92.99
2022-11-17T00:28:11.071Z,93.14
2022-11-17T00:29:11.065Z,93.09
2022-11-17T00:30:11.062Z,93.01
2022-11-17T00:31:15.067Z,93.06
2022-11-17T00:32:17.065Z,93.16
2022-11-17T00:33:15.060Z,93.08
2022-11-17T00:34:12.063Z,92.98
2022-11-17T00:35:11.067Z,93.01
2022-11-17T00:36:11.067Z,93.16
2022-11-17T00:37:11.063Z,93.35
2022-11-17T00:38:15.064Z,93.21
2022-11-17T00:39:11.071Z,93.01
2022-11-17T00:40:11.066Z,93.02
2022-11-17T00:41:11.063Z,92.94
2022-11-17T00:42:11.067Z,92.93
2022-11-17T00:43:11.061Z,92.85
2022-11-17T00:44:11.070Z,92.83
2022-11-17T00:45:11.065Z,92.95
2022-11-17T00:46:11.064Z,93.06
2022-11-17T00:47:11.064Z,92.93
2022-11-17T00:48:11.073Z,92.98
2022-11-17T00:49:11.072Z,93.03
2022-11-17T00:50:11.064Z,93.13
2022-11-17T00:51:11.074Z,93.04
2022-11-17T00:52:11.062Z,92.95
2022-11-17T00:53:11.065Z,92.95
2022-11-17T00:54:12.076Z,92.68
2022-11-17T00:55:11.087Z,92.72
2022-11-17T00:56:11.072Z,92.77
2022-11-17T00:57:11.067Z,92.72
2022-11-17T00:58:11.064Z,92.67
2022-11-17T00:59:11.064Z,92.63
2022-11-17T01:00:11.067Z,92.63
2022-11-17T01:01:11.113Z,92.56
2022-11-17T01:02:11.066Z,92.35
2022-11-17T01:03:11.075Z,92.56
2022-11-17T01:04:11.064Z,92.57
2022-11-17T01:05:11.080Z,92.26
2022-11-17T01:06:11.075Z,92.36
2022-11-17T01:07:11.098Z,92.56
2022-11-17T01:08:11.068Z,92.34
2022-11-17T01:09:16.081Z,92.32
2022-11-17T01:10:11.071Z,92.39
2022-11-17T01:11:17.069Z,92.25
2022-11-17T01:12:11.071Z,92.45
2022-11-17T01:13:11.066Z,92.45
2022-11-17T01:14:12.067Z,92.34
2022-11-17T01:15:11.074Z,92.49
2022-11-17T01:16:17.064Z,92.43
2022-11-17T01:17:11.068Z,92.46
2022-11-17T01:18:11.076Z,92.33
2022-11-17T01:19:11.071Z,92.41
2022-11-17T01:20:11.066Z,92.59
2022-11-17T01:21:15.075Z,92.74
2022-11-17T01:22:11.068Z,92.61
2022-11-17T01:23:11.064Z,92.47
2022-11-17T01:24:11.073Z,92.49
2022-11-17T01:25:11.075Z,92.73
2022-11-17T01:26:12.078Z,92.56
2022-11-17T01:27:11.068Z,92.56
2022-11-17T01:28:11.069Z,92.60
2022-11-17T01:29:11.070Z,92.54
2022-11-17T01:30:11.068Z,92.51
2022-11-17T01:31:12.071Z,92.55
2022-11-17T01:32:11.065Z,92.62
2022-11-17T01:33:11.067Z,92.62
2022-11-17T01:34:11.077Z,92.57
2022-11-17T01:35:11.067Z,92.62
2022-11-17T01:36:14.069Z,92.58
2022-11-17T01:37:15.081Z,92.75
2022-11-17T01:38:11.071Z,92.71
2022-11-17T01:39:11.069Z,92.57
2022-11-17T01:40:11.068Z,92.69
2022-11-17T01:41:15.076Z,92.71
2022-11-17T01:42:20.068Z,92.50
2022-11-17T01:43:13.066Z,92.65
2022-11-17T01:44:19.077Z,92.67
2022-11-17T01:45:19.071Z,92.58
2022-11-17T01:46:19.068Z,92.67
2022-11-17T01:47:19.065Z,92.60
2022-11-17T01:48:13.070Z,92.59
2022-11-17T01:49:23.078Z,93.09
2022-11-17T01:50:18.072Z,92.96
2022-11-17T01:51:11.070Z,92.93
2022-11-17T01:52:11.068Z,92.77
2022-11-17T01:53:16.079Z,92.82
2022-11-17T01:54:12.071Z,92.73
2022-11-17T01:55:11.088Z,92.70
2022-11-17T01:56:15.073Z,92.66
2022-11-17T01:57:17.072Z,92.88
2022-11-17T01:58:17.069Z,93.03
2022-11-17T01:59:21.073Z,92.93
2022-11-17T02:00:11.070Z,92.69
2022-11-17T02:01:11.132Z,92.83
2022-11-17T02:02:11.077Z,92.80
2022-11-17T02:03:11.070Z,92.88
2022-11-17T02:04:11.078Z,92.95
2022-11-17T02:05:21.070Z,93.05
2022-11-17T02:06:20.068Z,93.29
2022-11-17T02:07:18.100Z,93.29
2022-11-17T02:08:11.074Z,93.34
2022-11-17T02:09:11.072Z,93.25
2022-11-17T02:10:11.072Z,93.31
2022-11-17T02:11:16.074Z,93.44
2022-11-17T02:12:11.072Z,93.43
2022-11-17T02:13:11.070Z,93.49
2022-11-17T02:14:11.070Z,93.42
2022-11-17T02:15:11.080Z,93.38
2022-11-17T02:16:13.073Z,93.21
2022-11-17T02:17:14.304Z,93.11
2022-11-17T02:18:11.080Z,93.30
2022-11-17T02:19:11.069Z,93.22
2022-11-17T02:20:15.071Z,93.13
2022-11-17T02:21:19.086Z,93.16
2022-11-17T02:22:19.075Z,93.17
2022-11-17T02:23:21.072Z,93.37
2022-11-17T02:24:21.074Z,93.33
2022-11-17T02:25:26.820Z,93.19
2022-11-17T02:26:19.074Z,93.25
2022-11-17T02:27:19.073Z,93.05
2022-11-17T02:28:21.072Z,93.07
2022-11-17T02:29:19.071Z,92.95
2022-11-17T02:30:15.069Z,93.13
2022-11-17T02:31:22.079Z,93.78
2022-11-17T02:32:23.081Z,93.70
2022-11-17T02:33:21.073Z,93.78
2022-11-17T02:34:19.073Z,93.73
2022-11-17T02:35:21.070Z,93.65
2022-11-17T02:36:19.074Z,93.69
2022-11-17T02:37:19.081Z,93.58
2022-11-17T02:38:21.072Z,93.45
2022-11-17T02:39:21.075Z,93.56
2022-11-17T02:40:18.078Z,93.43
2022-11-17T02:41:17.075Z,93.30
2022-11-17T02:42:19.080Z,93.31
2022-11-17T02:43:17.076Z,93.29
2022-11-17T02:44:21.071Z,93.21
2022-11-17T02:45:13.069Z,93.19
2022-11-17T02:46:17.075Z,93.19
2022-11-17T02:47:20.073Z,92.83
2022-11-17T02:48:15.058Z,93.14
2022-11-17T02:49:16.060Z,92.96
2022-11-17T02:50:11.059Z,92.95
2022-11-17T02:51:17.058Z,93.05
2022-11-17T02:52:11.055Z,92.99
2022-11-17T02:53:11.058Z,93.02
2022-11-17T02:54:11.061Z,93.12
2022-11-17T02:55:11.060Z,93.21
2022-11-17T02:56:11.064Z,93.34
2022-11-17T02:57:19.059Z,93.41
2022-11-17T02:58:13.057Z,93.21
2022-11-17T02:59:11.059Z,93.16
2022-11-17T03:00:15.061Z,93.44
2022-11-17T03:01:19.090Z,93.70
2022-11-17T03:02:19.061Z,93.69
2022-11-17T03:03:23.058Z,93.80
2022-11-17T03:04:19.066Z,94.05
2022-11-17T03:05:20.061Z,94.02
2022-11-17T03:06:21.061Z,94.19
2022-11-17T03:07:21.103Z,93.96
2022-11-17T03:08:19.063Z,93.90
2022-11-17T03:09:21.061Z,93.76
2022-11-17T03:10:20.067Z,93.76
2022-11-17T03:11:11.061Z,93.89
2022-11-17T03:12:19.059Z,93.88
2022-11-17T03:13:19.062Z,93.70
2022-11-17T03:14:19.061Z,93.74
2022-11-17T03:15:21.073Z,93.80
2022-11-17T03:16:19.060Z,93.97
2022-11-17T03:17:17.064Z,94.00
2022-11-17T03:18:21.062Z,93.94
2022-11-17T03:19:19.063Z,94.06
2022-11-17T03:20:18.085Z,94.07
2022-11-17T03:21:21.062Z,94.05
2022-11-17T03:22:21.058Z,94.00
2022-11-17T03:23:21.054Z,93.98
2022-11-17T03:24:17.067Z,94.00
2022-11-17T03:25:14.068Z,93.78
2022-11-17T03:26:17.063Z,94.14
2022-11-17T03:27:23.059Z,94.17
2022-11-17T03:28:11.060Z,94.45
2022-11-17T03:29:13.062Z,94.41
2022-11-17T03:30:11.062Z,94.51
2022-11-17T03:31:11.060Z,94.58
2022-11-17T03:32:11.062Z,94.54
2022-11-17T03:33:16.062Z,94.30
2022-11-17T03:34:14.059Z,94.54
2022-11-17T03:35:15.062Z,94.42
2022-11-17T03:36:13.074Z,94.49
2022-11-17T03:37:12.060Z,94.48
2022-11-17T03:38:12.063Z,94.48
2022-11-17T03:39:21.070Z,94.33
2022-11-17T03:40:12.065Z,94.19
2022-11-17T03:41:13.061Z,94.28
2022-11-17T03:42:18.065Z,94.32
2022-11-17T03:43:12.069Z,94.40
2022-11-17T03:44:11.059Z,94.58
2022-11-17T03:45:20.061Z,94.56
2022-11-17T03:46:14.064Z,94.37
2022-11-17T03:47:13.062Z,94.38
2022-11-17T03:48:19.063Z,94.20
2022-11-17T03:49:19.063Z,94.18
2022-11-17T03:50:19.112Z,94.16
2022-11-17T03:51:17.062Z,94.31
2022-11-17T03:52:11.061Z,93.99
2022-11-17T03:53:11.065Z,94.15
2022-11-17T03:54:11.071Z,94.03
2022-11-17T03:55:11.062Z,93.85
2022-11-17T03:56:19.063Z,93.91
2022-11-17T03:57:17.069Z,93.97
2022-11-17T03:58:14.064Z,93.84
2022-11-17T03:59:19.061Z,93.84
2022-11-17T04:00:11.061Z,93.67
2022-11-17T04:01:11.071Z,93.89
2022-11-17T04:02:15.060Z,93.65
2022-11-17T04:03:11.068Z,93.64
2022-11-17T04:04:16.072Z,93.57
2022-11-17T04:05:11.067Z,93.54
2022-11-17T04:06:11.082Z,93.43
2022-11-17T04:07:11.117Z,93.30
2022-11-17T04:08:11.079Z,93.30
2022-11-17T04:09:11.064Z,93.09
2022-11-17T04:10:15.063Z,92.98
2022-11-17T04:11:15.064Z,93.16
2022-11-17T04:12:15.061Z,93.01
2022-11-17T04:13:15.059Z,93.00
2022-11-17T04:14:15.062Z,93.16
2022-11-17T04:15:17.079Z,93.00
2022-11-17T04:16:11.065Z,93.12
2022-11-17T04:17:11.070Z,92.86
2022-11-17T04:18:11.063Z,92.82
2022-11-17T04:19:11.065Z,92.97
2022-11-17T04:20:11.063Z,92.91
2022-11-17T04:21:11.067Z,92.98
2022-11-17T04:22:11.064Z,92.86
2022-11-17T04:23:12.084Z,93.04
2022-11-17T04:24:11.066Z,93.22
2022-11-17T04:25:11.068Z,93.16
2022-11-17T04:26:15.081Z,93.09
2022-11-17T04:27:17.109Z,93.33
2022-11-17T04:28:15.067Z,93.23
2022-11-17T04:29:11.067Z,93.43
2022-11-17T04:30:11.062Z,93.47
2022-11-17T04:31:15.065Z,93.45
2022-11-17T04:32:11.073Z,93.79
2022-11-17T04:33:11.064Z,93.92
2022-11-17T04:34:11.068Z,93.97
2022-11-17T04:35:11.074Z,93.96
2022-11-17T04:36:11.070Z,93.88
2022-11-17T04:37:15.066Z,93.99
2022-11-17T04:38:11.068Z,94.48
2022-11-17T04:39:11.065Z,94.57
2022-11-17T04:40:11.066Z,94.28
2022-11-17T04:41:15.068Z,94.14
2022-11-17T04:42:11.074Z,94.03
2022-11-17T04:43:11.063Z,94.17
2022-11-17T04:44:11.065Z,94.23
2022-11-17T04:45:11.072Z,94.24
2022-11-17T04:46:11.064Z,94.38
2022-11-17T04:47:11.064Z,94.31
2022-11-17T04:48:11.069Z,94.17
2022-11-17T04:49:11.064Z,93.93
2022-11-17T04:50:11.069Z,94.22
2022-11-17T04:51:11.074Z,94.28
2022-11-17T04:52:11.064Z,94.53
2022-11-17T04:53:11.068Z,94.72
2022-11-17T04:54:11.084Z,94.75
2022-11-17T04:55:11.066Z,94.73
2022-11-17T04:56:11.067Z,94.48
2022-11-17T04:57:11.071Z,94.46
2022-11-17T04:58:11.172Z,94.39
2022-11-17T04:59:11.065Z,94.36
2022-11-17T05:00:11.070Z,94.34
2022-11-17T05:01:15.066Z,94.33
2022-11-17T05:02:11.185Z,94.26
2022-11-17T05:03:11.067Z,94.49
2022-11-17T05:04:11.075Z,94.47
2022-11-17T05:05:11.064Z,94.48
2022-11-17T05:06:11.071Z,94.27
2022-11-17T05:07:11.095Z,94.12
2022-11-17T05:08:11.067Z,94.08
2022-11-17T05:09:15.067Z,94.26
2022-11-17T05:10:11.084Z,94.15
2022-11-17T05:11:15.165Z,94.25
2022-11-17T05:12:15.072Z,94.19
2022-11-17T05:13:15.072Z,93.99
2022-11-17T05:14:11.078Z,94.05
2022-11-17T05:15:11.066Z,93.80
2022-11-17T05:16:15.071Z,93.77
2022-11-17T05:17:11.936Z,93.40
2022-11-17T05:18:11.069Z,93.37
2022-11-17T05:19:15.071Z,93.80
2022-11-17T05:20:11.077Z,93.92
2022-11-17T05:21:11.071Z,93.98
2022-11-17T05:22:18.077Z,93.80
2022-11-17T05:23:15.069Z,93.65
2022-11-17T05:24:11.077Z,93.64
2022-11-17T05:25:11.070Z,93.61
2022-11-17T05:26:11.072Z,93.65
2022-11-17T05:27:11.079Z,93.63
2022-11-17T05:28:11.068Z,93.89
2022-11-17T05:29:11.082Z,93.92
2022-11-17T05:30:11.074Z,94.35
2022-11-17T05:31:11.070Z,94.11
2022-11-17T05:32:11.068Z,94.01
2022-11-17T05:33:11.075Z,94.02
2022-11-17T05:34:11.072Z,93.92
2022-11-17T05:35:11.072Z,93.95
2022-11-17T05:36:11.072Z,94.02
2022-11-17T05:37:11.073Z,94.00
2022-11-17T05:38:11.073Z,93.78
2022-11-17T05:39:11.070Z,93.76
2022-11-17T05:40:11.081Z,93.81
2022-11-17T05:41:11.069Z,93.80
2022-11-17T05:42:11.075Z,93.83
2022-11-17T05:43:11.080Z,93.94
2022-11-17T05:44:11.073Z,93.89
2022-11-17T05:45:11.068Z,93.96
2022-11-17T05:46:11.083Z,94.00
2022-11-17T05:47:11.078Z,94.34
2022-11-17T05:48:11.054Z,94.24
2022-11-17T05:49:11.059Z,94.00
2022-11-17T05:50:11.058Z,93.92
2022-11-17T05:51:11.054Z,93.96
2022-11-17T05:52:11.061Z,94.18
2022-11-17T05:53:11.116Z,94.08
2022-11-17T05:54:11.055Z,93.94
2022-11-17T05:55:11.061Z,93.88
2022-11-17T05:56:19.061Z,94.21
2022-11-17T05:57:15.058Z,94.09
2022-11-17T05:58:22.057Z,93.97
2022-11-17T05:59:23.423Z,93.94
2022-11-17T06:00:13.052Z,93.99
2022-11-17T06:01:11.058Z,94.18
2022-11-17T06:02:19.062Z,94.15
2022-11-17T06:03:18.059Z,94.12
2022-11-17T06:04:11.134Z,93.98
2022-11-17T06:05:14.401Z,93.84
2022-11-17T06:06:13.037Z,93.74
2022-11-17T06:07:11.138Z,93.61
2022-11-17T06:08:11.061Z,93.39
2022-11-17T06:09:11.058Z,93.37
2022-11-17T06:10:11.060Z,93.41
2022-11-17T06:11:11.061Z,93.28
2022-11-17T06:12:11.058Z,93.44
2022-11-17T06:13:11.060Z,93.39
2022-11-17T06:14:11.061Z,93.52
2022-11-17T06:15:11.056Z,93.41
2022-11-17T06:16:12.059Z,93.18
2022-11-17T06:17:22.057Z,93.32
2022-11-17T06:18:17.059Z,93.29
2022-11-17T06:19:19.060Z,93.01
2022-11-17T06:20:19.060Z,93.06
2022-11-17T06:21:13.896Z,92.86
2022-11-17T06:22:12.964Z,93.30
2022-11-17T06:23:11.065Z,93.15
2022-11-17T06:24:11.059Z,93.20
2022-11-17T06:25:11.062Z,93.08
2022-11-17T06:26:11.060Z,92.83
2022-11-17T06:27:14.062Z,92.88
2022-11-17T06:28:13.062Z,92.97
2022-11-17T06:29:11.058Z,92.87
2022-11-17T06:30:11.062Z,92.75
2022-11-17T06:31:11.070Z,92.82
2022-11-17T06:32:11.060Z,92.90
2022-11-17T06:33:12.065Z,92.81
2022-11-17T06:34:11.072Z,92.79
2022-11-17T06:35:11.070Z,92.60
2022-11-17T06:36:11.058Z,92.69
2022-11-17T06:37:11.072Z,92.53
2022-11-17T06:38:11.063Z,92.33
2022-11-17T06:39:11.058Z,92.57
2022-11-17T06:40:11.066Z,92.57
2022-11-17T06:41:12.240Z,92.37
2022-11-17T06:42:11.058Z,92.62
2022-11-17T06:43:15.075Z,92.51
2022-11-17T06:44:11.063Z,92.50
2022-11-17T06:45:11.061Z,92.49
2022-11-17T06:46:11.062Z,92.48
2022-11-17T06:47:11.068Z,92.47
2022-11-17T06:48:11.059Z,92.61
2022-11-17T06:49:11.063Z,92.46
2022-11-17T06:50:11.072Z,92.46
2022-11-17T06:51:11.061Z,92.82
2022-11-17T06:52:11.069Z,92.63
2022-11-17T06:53:11.096Z,92.45
2022-11-17T06:54:12.066Z,92.38
2022-11-17T06:55:11.076Z,92.47
2022-11-17T06:56:13.078Z,92.44
2022-11-17T06:57:11.071Z,92.27
2022-11-17T06:58:13.075Z,92.23
2022-11-17T06:59:11.072Z,92.18
2022-11-17T07:00:11.070Z,92.08
2022-11-17T07:01:11.121Z,92.27
2022-11-17T07:02:11.073Z,92.13
2022-11-17T07:03:11.073Z,92.37
2022-11-17T07:04:11.067Z,92.20
2022-11-17T07:05:11.079Z,92.28
2022-11-17T07:06:11.075Z,92.46
2022-11-17T07:07:11.112Z,92.37
2022-11-17T07:08:11.077Z,92.42
2022-11-17T07:09:11.071Z,92.39
2022-11-17T07:10:11.066Z,92.54
2022-11-17T07:11:14.074Z,92.40
2022-11-17T07:12:11.072Z,92.66
2022-11-17T07:13:11.072Z,92.69
2022-11-17T07:14:11.072Z,92.75
2022-11-17T07:15:11.073Z,92.91
2022-11-17T07:16:12.071Z,92.99
2022-11-17T07:17:11.072Z,93.05
2022-11-17T07:18:11.074Z,93.24
2022-11-17T07:19:12.072Z,93.22
2022-11-17T07:20:11.076Z,93.14
2022-11-17T07:21:11.081Z,93.22
2022-11-17T07:22:11.075Z,93.18
2022-11-17T07:23:11.068Z,93.24
2022-11-17T07:24:11.084Z,93.33
2022-11-17T07:25:11.076Z,93.38
2022-11-17T07:26:11.069Z,93.36
2022-11-17T07:27:11.075Z,93.49
2022-11-17T07:28:11.072Z,93.58
2022-11-17T07:29:11.068Z,93.66
2022-11-17T07:30:11.076Z,93.81
2022-11-17T07:31:11.073Z,93.98
2022-11-17T07:32:12.071Z,93.80
2022-11-17T07:33:11.076Z,93.72
2022-11-17T07:34:11.075Z,93.97
2022-11-17T07:35:11.069Z,93.84
2022-11-17T07:36:13.076Z,93.89
2022-11-17T07:37:11.074Z,93.70
2022-11-17T07:38:11.071Z,93.59
2022-11-17T07:39:11.077Z,93.73
2022-11-17T07:40:11.074Z,93.80
2022-11-17T07:41:12.074Z,93.65
2022-11-17T07:42:11.074Z,93.63
2022-11-17T07:43:11.075Z,93.65
2022-11-17T07:44:11.072Z,93.67
2022-11-17T07:45:11.090Z,93.57
2022-11-17T07:46:12.081Z,93.54
2022-11-17T07:47:11.076Z,93.45
2022-11-17T07:48:11.069Z,93.32
2022-11-17T07:49:11.075Z,93.33
2022-11-17T07:50:11.081Z,93.49
2022-11-17T07:51:11.075Z,93.45
2022-11-17T07:52:11.075Z,93.34
2022-11-17T07:53:11.074Z,93.37
2022-11-17T07:54:11.072Z,93.00
2022-11-17T07:55:11.074Z,93.10
2022-11-17T07:56:11.094Z,93.10
2022-11-17T07:57:11.078Z,93.08
2022-11-17T07:58:11.075Z,93.31
2022-11-17T07:59:11.078Z,93.05
2022-11-17T08:00:11.073Z,93.34
2022-11-17T08:01:14.174Z,93.29
2022-11-17T08:02:11.084Z,93.27
2022-11-17T08:03:11.148Z,93.22
2022-11-17T08:04:11.130Z,93.16
2022-11-17T08:05:11.084Z,93.20
2022-11-17T08:06:11.075Z,93.18
2022-11-17T08:07:11.149Z,92.91
2022-11-17T08:08:11.077Z,92.87
2022-11-17T08:09:11.077Z,92.92
2022-11-17T08:10:11.076Z,92.95
2022-11-17T08:11:11.081Z,92.81
2022-11-17T08:12:11.077Z,92.67
2022-11-17T08:13:11.077Z,92.85
2022-11-17T08:14:11.078Z,92.79
2022-11-17T08:15:11.077Z,92.75
2022-11-17T08:16:11.079Z,92.76
2022-11-17T08:17:11.077Z,92.86
2022-11-17T08:18:11.082Z,92.71
2022-11-17T08:19:11.073Z,92.33
2022-11-17T08:20:11.085Z,92.79
2022-11-17T08:21:14.079Z,92.65
2022-11-17T08:22:11.074Z,92.38
2022-11-17T08:23:11.075Z,92.42
2022-11-17T08:24:11.084Z,92.23
2022-11-17T08:25:11.074Z,92.24
2022-11-17T08:26:11.076Z,92.33
2022-11-17T08:27:11.084Z,92.33
2022-11-17T08:28:11.076Z,91.98
2022-11-17T08:29:11.077Z,92.30
2022-11-17T08:30:11.085Z,92.45
2022-11-17T08:31:11.076Z,92.17
2022-11-17T08:32:11.077Z,92.23
2022-11-17T08:33:11.084Z,92.06
2022-11-17T08:34:11.075Z,91.91
2022-11-17T08:35:11.078Z,91.92
2022-11-17T08:36:11.084Z,91.81
2022-11-17T08:37:11.084Z,91.65
2022-11-17T08:38:11.075Z,91.58
2022-11-17T08:39:11.085Z,91.49
2022-11-17T08:40:11.081Z,91.56
2022-11-17T08:41:11.081Z,91.62
2022-11-17T08:42:11.085Z,91.56
2022-11-17T08:43:11.078Z,91.90
2022-11-17T08:44:11.078Z,91.88
2022-11-17T08:45:11.077Z,91.93
2022-11-17T08:46:13.081Z,91.91
2022-11-17T08:47:11.078Z,92.11
2022-11-17T08:48:11.069Z,92.18
2022-11-17T08:49:11.065Z,91.93
2022-11-17T08:50:11.059Z,92.00
2022-11-17T08:51:12.070Z,91.89
2022-11-17T08:52:11.071Z,91.88
2022-11-17T08:53:15.065Z,91.69
2022-11-17T08:54:12.068Z,91.63
2022-11-17T08:55:11.159Z,91.67
2022-11-17T08:56:11.064Z,91.59
2022-11-17T08:57:11.165Z,91.64
2022-11-17T08:58:11.061Z,91.79
2022-11-17T08:59:13.063Z,91.75
2022-11-17T09:00:11.065Z,91.78
2022-11-17T09:01:13.140Z,91.56
2022-11-17T09:02:11.059Z,91.72
2022-11-17T09:03:11.077Z,91.63
2022-11-17T09:04:11.069Z,91.64
2022-11-17T09:05:11.078Z,91.65
2022-11-17T09:06:11.061Z,91.81
2022-11-17T09:07:11.119Z,91.79
2022-11-17T09:08:38.374Z,91.75
2022-11-17T09:09:13.115Z,91.78
2022-11-17T09:10:11.185Z,91.74
2022-11-17T09:11:11.074Z,91.55
2022-11-17T09:12:11.059Z,91.80
2022-11-17T09:13:12.734Z,91.78
2022-11-17T09:14:11.064Z,92.15
2022-11-17T09:15:11.061Z,91.93
2022-11-17T09:16:11.061Z,91.78
2022-11-17T09:17:11.081Z,91.58
2022-11-17T09:18:11.066Z,91.97
2022-11-17T09:19:11.061Z,92.02
2022-11-17T09:20:11.072Z,91.79
2022-11-17T09:21:14.060Z,91.80
2022-11-17T09:22:11.062Z,91.74
2022-11-17T09:23:11.070Z,91.81
2022-11-17T09:24:11.060Z,91.96
2022-11-17T09:25:13.507Z,91.65
2022-11-17T09:26:11.071Z,91.60
2022-11-17T09:27:11.059Z,91.78
2022-11-17T09:28:11.058Z,91.64
2022-11-17T09:29:11.066Z,91.61
2022-11-17T09:30:11.063Z,91.56
2022-11-17T09:31:12.203Z,91.37
2022-11-17T09:32:11.065Z,91.53
2022-11-17T09:33:11.063Z,91.77
2022-11-17T09:34:11.095Z,91.75
2022-11-17T09:35:13.072Z,91.55
2022-11-17T09:36:11.064Z,91.53
2022-11-17T09:37:11.062Z,91.66
2022-11-17T09:38:11.062Z,91.77
2022-11-17T09:39:11.063Z,91.90
2022-11-17T09:40:13.064Z,91.95
2022-11-17T09:41:21.069Z,92.02
2022-11-17T09:42:15.071Z,91.65
2022-11-17T09:43:21.061Z,91.95
2022-11-17T09:44:21.064Z,92.20
2022-11-17T09:45:20.067Z,92.24
2022-11-17T09:46:19.064Z,92.11
2022-11-17T09:47:19.078Z,92.03
2022-11-17T09:48:40.100Z,91.83
2022-11-17T09:49:19.062Z,91.74
2022-11-17T09:50:19.301Z,91.78
2022-11-17T09:51:14.073Z,91.65
2022-11-17T09:52:19.066Z,91.71
2022-11-17T09:53:22.065Z,91.51
2022-11-17T09:54:19.066Z,91.51
2022-11-17T09:55:19.068Z,91.72
2022-11-17T09:56:11.071Z,91.67
2022-11-17T09:57:19.065Z,91.48
2022-11-17T09:58:19.066Z,91.42
2022-11-17T09:59:12.073Z,91.59
2022-11-17T10:00:18.132Z,91.52
2022-11-17T10:01:15.064Z,91.61
2022-11-17T10:02:11.103Z,91.52
2022-11-17T10:03:20.074Z,91.49
2022-11-17T10:04:15.068Z,91.63
2022-11-17T10:05:19.065Z,91.45
2022-11-17T10:06:19.065Z,91.46
2022-11-17T10:07:11.119Z,91.20
2022-11-17T10:08:16.068Z,91.42
2022-11-17T10:09:22.585Z,91.31
2022-11-17T10:10:23.155Z,91.30
2022-11-17T10:11:15.068Z,91.23
2022-11-17T10:12:19.075Z,91.24
2022-11-17T10:13:23.067Z,91.32
2022-11-17T10:14:18.068Z,91.20
2022-11-17T10:15:19.070Z,91.22
2022-11-17T10:16:14.066Z,91.04
2022-11-17T10:17:11.069Z,91.02
2022-11-17T10:18:13.063Z,91.09
2022-11-17T10:19:19.072Z,91.10
2022-11-17T10:20:17.109Z,91.08
2022-11-17T10:21:11.071Z,91.05
2022-11-17T10:22:17.068Z,91.04
2022-11-17T10:23:14.070Z,91.12
2022-11-17T10:24:11.068Z,91.00
2022-11-17T10:25:19.072Z,90.97
2022-11-17T10:26:13.070Z,90.98
2022-11-17T10:27:21.085Z,90.78
2022-11-17T10:28:15.069Z,90.80
2022-11-17T10:29:12.073Z,91.06
2022-11-17T10:30:19.072Z,90.99
2022-11-17T10:31:17.071Z,90.89
2022-11-17T10:32:15.075Z,90.87
2022-11-17T10:33:14.066Z,90.96
2022-11-17T10:34:18.069Z,90.88
2022-11-17T10:35:15.079Z,90.81
2022-11-17T10:36:19.070Z,90.38
2022-11-17T10:37:19.068Z,90.21
2022-11-17T10:38:19.107Z,90.13
2022-11-17T10:39:19.076Z,89.97
2022-11-17T10:40:24.708Z,89.84
2022-11-17T10:41:19.046Z,89.80
2022-11-17T10:42:19.066Z,89.75
2022-11-17T10:43:19.069Z,89.88
2022-11-17T10:44:19.076Z,89.75
2022-11-17T10:45:16.069Z,89.81
2022-11-17T10:46:15.081Z,89.79
2022-11-17T10:47:19.071Z,89.86
2022-11-17T10:48:15.078Z,89.93
2022-11-17T10:49:20.068Z,89.81
2022-11-17T10:50:19.071Z,89.91
2022-11-17T10:51:22.070Z,89.84
2022-11-17T10:52:17.070Z,89.95
2022-11-17T10:53:21.108Z,89.73
2022-11-17T10:54:21.075Z,89.74
2022-11-17T10:55:19.068Z,89.77
2022-11-17T10:56:16.078Z,89.65
2022-11-17T10:57:19.082Z,89.83
2022-11-17T10:58:21.073Z,89.81
2022-11-17T10:59:19.080Z,89.55
2022-11-17T11:00:19.071Z,89.56
2022-11-17T11:01:11.125Z,89.51
2022-11-17T11:02:19.081Z,89.58
2022-11-17T11:03:18.073Z,89.36
2022-11-17T11:04:19.071Z,89.34
2022-11-17T11:05:17.071Z,89.46
2022-11-17T11:06:21.080Z,89.26
2022-11-17T11:07:14.213Z,89.24
2022-11-17T11:08:19.071Z,88.95
2022-11-17T11:09:18.077Z,88.80
2022-11-17T11:10:16.077Z,88.49
2022-11-17T11:11:17.075Z,88.60
2022-11-17T11:12:15.070Z,88.63
2022-11-17T11:13:23.073Z,88.33
2022-11-17T11:14:19.075Z,88.20
2022-11-17T11:15:19.073Z,88.20
2022-11-17T11:16:12.075Z,88.09
2022-11-17T11:17:14.070Z,87.51
2022-11-17T11:18:14.077Z,87.87
2022-11-17T11:19:14.074Z,87.88
2022-11-17T11:20:18.069Z,87.47
2022-11-17T11:21:18.086Z,87.64
2022-11-17T11:22:21.375Z,87.30
2022-11-17T11:23:18.073Z,87.33
2022-11-17T11:24:19.073Z,87.22
2022-11-17T11:25:21.075Z,87.08
2022-11-17T11:26:21.075Z,86.83
2022-11-17T11:27:23.089Z,86.90
2022-11-17T11:28:21.075Z,86.65
2022-11-17T11:30:15.107Z,86.42
2022-11-17T11:31:21.073Z,85.98
2022-11-17T11:32:19.098Z,85.99
2022-11-17T11:33:19.075Z,85.82
2022-11-17T11:34:19.073Z,86.09
2022-11-17T11:35:19.078Z,85.87
2022-11-17T11:36:19.075Z,85.58
2022-11-17T11:37:12.082Z,85.52
2022-11-17T11:38:19.074Z,85.76
2022-11-17T11:39:21.076Z,85.66
2022-11-17T11:40:16.074Z,85.50
2022-11-17T11:41:21.078Z,85.40
2022-11-17T11:42:21.078Z,85.34
2022-11-17T11:43:19.073Z,85.40
2022-11-17T11:44:19.076Z,85.27
2022-11-17T11:45:19.089Z,84.94
2022-11-17T11:46:17.103Z,84.81
2022-11-17T11:47:19.073Z,84.87
2022-11-17T11:48:20.057Z,84.62
2022-11-17T11:49:19.059Z,84.92
2022-11-17T11:50:19.074Z,84.99
2022-11-17T11:51:15.061Z,84.78
2022-11-17T11:52:18.061Z,84.41
2022-11-17T11:53:19.061Z,84.79
2022-11-17T11:54:19.068Z,84.47
2022-11-17T11:55:21.065Z,84.51
2022-11-17T11:56:16.062Z,84.22
2022-11-17T11:57:15.063Z,84.09
2022-11-17T11:58:19.068Z,84.20
2022-11-17T11:59:21.066Z,84.07
2022-11-17T12:00:15.075Z,83.89
2022-11-17T12:01:11.068Z,83.75
2022-11-17T12:02:21.109Z,83.72
2022-11-17T12:03:19.103Z,83.56
2022-11-17T12:04:21.060Z,83.35
2022-11-17T12:05:19.062Z,83.24
2022-11-17T12:06:23.061Z,83.28
2022-11-17T12:07:19.152Z,83.30
2022-11-17T12:08:18.106Z,83.40
2022-11-17T12:09:19.060Z,82.90
2022-11-17T12:10:19.066Z,83.01
2022-11-17T12:11:15.062Z,83.03
2022-11-17T12:12:17.066Z,83.07
2022-11-17T12:13:14.060Z,82.81
2022-11-17T12:14:17.091Z,82.61
2022-11-17T12:15:19.073Z,82.83
2022-11-17T12:16:21.081Z,82.67
2022-11-17T12:17:19.060Z,82.64
2022-11-17T12:18:21.067Z,82.67
2022-11-17T12:19:19.065Z,82.51
2022-11-17T12:20:19.073Z,82.47
2022-11-17T12:21:14.076Z,82.46
2022-11-17T12:22:14.061Z,82.36
2022-11-17T12:23:19.065Z,82.21
2022-11-17T12:24:18.072Z,81.88
2022-11-17T12:25:18.065Z,81.87
2022-11-17T12:26:19.063Z,81.89
2022-11-17T12:27:19.066Z,80.98
2022-11-17T12:28:19.064Z,81.71
2022-11-17T12:29:19.077Z,81.96
2022-11-17T12:30:19.065Z,82.44
2022-11-17T12:31:19.064Z,82.29
2022-11-17T12:32:15.067Z,82.75
2022-11-17T12:33:11.079Z,82.77
2022-11-17T12:34:15.104Z,82.69
2022-11-17T12:35:19.060Z,82.65
2022-11-17T12:36:19.066Z,82.55
2022-11-17T12:37:19.074Z,83.15
2022-11-17T12:38:19.065Z,83.02
2022-11-17T12:39:21.063Z,82.80
2022-11-17T12:40:15.062Z,82.85
2022-11-17T12:41:11.068Z,82.83
2022-11-17T12:42:11.066Z,82.64
2022-11-17T12:43:21.066Z,82.85
2022-11-17T12:44:19.068Z,82.92
2022-11-17T12:45:13.072Z,82.68
2022-11-17T12:46:21.073Z,82.66
2022-11-17T12:47:18.086Z,82.57
2022-11-17T12:48:32.739Z,82.45
2022-11-17T12:49:21.460Z,82.30
2022-11-17T12:50:21.085Z,82.26
2022-11-17T12:51:21.070Z,82.35
2022-11-17T12:52:21.093Z,81.79
2022-11-17T12:53:21.066Z,81.76